Time;durP1;ratioP1;P1;durP2;ratioP2;P2;SDS_P1;SDS_P2;PMS_P1;PMS_P2;Temp;Humidity;BMP_temperature;BMP_pressure;BME280_temperature;BME280_humidity;BME280_pressure;Samples;Min_cycle;Max_cycle;Signal;HPM_P1;HPM_P2
2022/07/25 00:00:14;;;;;;;5.07;4.55;;;27.50;89.70;;;;;;5006592;28;20664;-24
2022/07/25 00:02:42;;;;;;;4.97;4.47;;;27.40;89.60;;;;;;5007968;28;20217;-23
2022/07/25 00:05:17;;;;;;;6.07;4.35;;;27.40;89.70;;;;;;5000674;28;20656;-23
2022/07/25 00:07:47;;;;;;;5.60;4.30;;;27.40;89.80;;;;;;4994840;28;20237;-24
2022/07/25 00:10:17;;;;;;;5.75;4.35;;;27.30;89.70;;;;;;5003584;28;20573;-23
2022/07/25 00:12:45;;;;;;;5.30;4.32;;;27.30;89.80;;;;;;5006814;28;20572;-23
2022/07/25 00:15:17;;;;;;;5.55;4.75;;;27.20;89.80;;;;;;5009046;28;20228;-23
2022/07/25 00:17:44;;;;;;;5.60;4.65;;;27.20;89.90;;;;;;5000252;28;20207;-23
2022/07/25 00:20:14;;;;;;;4.95;4.40;;;27.20;89.90;;;;;;4988384;28;20226;-23
2022/07/25 00:22:44;;;;;;;4.65;4.15;;;27.10;89.90;;;;;;4992527;28;20214;-24
2022/07/25 00:25:11;;;;;;;6.07;4.22;;;27.10;89.90;;;;;;4990669;28;20215;-25
2022/07/25 00:27:41;;;;;;;4.88;3.97;;;27.00;89.80;;;;;;4996088;28;20205;-24
2022/07/25 00:30:12;;;;;;;7.03;4.22;;;27.00;89.90;;;;;;5009719;28;20676;-23
2022/07/25 00:32:41;;;;;;;5.10;4.60;;;27.00;90.00;;;;;;5007124;28;20217;-32
2022/07/25 00:35:13;;;;;;;8.68;4.60;;;26.90;90.00;;;;;;5004699;28;20216;-24
2022/07/25 00:37:42;;;;;;;9.32;4.55;;;26.90;90.00;;;;;;4991419;28;20321;-24
2022/07/25 00:40:10;;;;;;;5.85;4.25;;;26.90;90.00;;;;;;5008109;28;20217;-24
2022/07/25 00:42:37;;;;;;;7.45;4.70;;;26.80;90.00;;;;;;5011193;28;20218;-24
2022/07/25 00:45:05;;;;;;;5.22;3.95;;;26.80;90.00;;;;;;4999803;28;20303;-24
2022/07/25 00:47:32;;;;;;;4.55;4.22;;;26.80;90.10;;;;;;4998374;28;20253;-24
2022/07/25 00:50:00;;;;;;;4.72;4.28;;;26.70;90.10;;;;;;4990074;28;20452;-24
2022/07/25 00:52:29;;;;;;;5.10;4.60;;;26.70;90.10;;;;;;4993121;28;20226;-24
2022/07/25 00:54:59;;;;;;;5.10;4.30;;;26.70;90.10;;;;;;4992563;28;20208;-24
2022/07/25 00:57:29;;;;;;;4.70;4.22;;;26.60;90.20;;;;;;5008242;28;20205;-24
2022/07/25 00:59:57;;;;;;;5.20;4.70;;;26.60;90.20;;;;;;5009661;28;20328;-24
2022/07/25 01:02:28;;;;;;;8.40;4.70;;;26.60;90.20;;;;;;5017851;28;20208;-24
2022/07/25 01:04:57;;;;;;;5.10;4.60;;;26.50;90.20;;;;;;5011496;28;20620;-24
2022/07/25 01:07:27;;;;;;;5.90;4.78;;;26.50;90.30;;;;;;5014341;28;20699;-24
2022/07/25 01:09:58;;;;;;;5.35;4.70;;;26.40;90.30;;;;;;5036313;28;20675;-24
2022/07/25 01:12:26;;;;;;;5.10;4.60;;;26.40;90.30;;;;;;5005113;28;20642;-23
2022/07/25 01:14:53;;;;;;;5.03;4.53;;;26.40;90.40;;;;;;5021253;28;20719;-23
2022/07/25 01:17:20;;;;;;;6.18;4.50;;;26.30;90.40;;;;;;5016193;28;20272;-24
2022/07/25 01:19:50;;;;;;;6.53;4.82;;;26.30;90.40;;;;;;5009878;28;20224;-24
2022/07/25 01:22:19;;;;;;;5.00;4.50;;;26.20;90.40;;;;;;5009300;28;20209;-24
2022/07/25 01:24:53;;;;;;;5.30;4.65;;;26.20;90.40;;;;;;5012087;28;20296;-24
2022/07/25 01:27:23;;;;;;;7.32;4.85;;;26.20;90.50;;;;;;5017143;28;20235;-24
2022/07/25 01:29:50;;;;;;;5.25;4.10;;;26.10;90.40;;;;;;5018853;28;20442;-24
2022/07/25 01:32:25;;;;;;;4.95;4.07;;;26.10;90.50;;;;;;5026202;28;20205;-24
2022/07/25 01:34:53;;;;;;;5.07;4.57;;;26.10;90.50;;;;;;5028527;28;20262;-24
2022/07/25 01:37:23;;;;;;;4.68;4.25;;;26.00;90.50;;;;;;5022608;28;20562;-24
2022/07/25 01:39:50;;;;;;;7.93;4.63;;;26.00;90.60;;;;;;5008295;28;20241;-23
2022/07/25 01:42:22;;;;;;;5.00;4.22;;;26.00;90.60;;;;;;5007656;28;20217;-24
2022/07/25 01:44:49;;;;;;;5.57;4.35;;;25.90;90.60;;;;;;5022126;28;20190;-31
2022/07/25 01:47:17;;;;;;;4.97;4.13;;;25.90;90.60;;;;;;5020545;28;20240;-24
2022/07/25 01:49:44;;;;;;;5.45;4.70;;;25.90;90.70;;;;;;5010736;28;20209;-23
2022/07/25 01:52:14;;;;;;;6.07;4.65;;;25.90;90.70;;;;;;5007810;28;20288;-24
2022/07/25 01:54:46;;;;;;;5.90;4.47;;;25.80;90.70;;;;;;5008787;28;20699;-23
2022/07/25 01:57:18;;;;;;;5.20;4.70;;;25.80;90.70;;;;;;5014605;28;20629;-24
2022/07/25 01:59:45;;;;;;;5.18;4.40;;;25.80;90.80;;;;;;5023000;28;20233;-24
2022/07/25 02:02:12;;;;;;;4.93;4.40;;;25.80;90.80;;;;;;5023333;28;20204;-24
2022/07/25 02:04:43;;;;;;;7.40;4.80;;;25.70;90.80;;;;;;5011486;28;20748;-27
2022/07/25 02:07:10;;;;;;;6.55;4.43;;;25.70;90.80;;;;;;5020541;28;20738;-24
2022/07/25 02:09:38;;;;;;;5.88;4.80;;;25.70;90.80;;;;;;5012606;28;20292;-27
2022/07/25 02:12:08;;;;;;;7.05;4.57;;;25.70;90.80;;;;;;5028642;28;20198;-27
2022/07/25 02:14:38;;;;;;;5.93;4.78;;;25.60;90.80;;;;;;5008597;28;20209;-23
2022/07/25 02:17:05;;;;;;;6.80;4.53;;;25.60;90.80;;;;;;5015641;28;20737;-23
2022/07/25 02:19:40;;;;;;;5.05;4.60;;;25.60;90.90;;;;;;5028191;28;20205;-24
2022/07/25 02:22:09;;;;;;;5.22;4.72;;;25.60;90.90;;;;;;5008346;28;20224;-28
2022/07/25 02:24:37;;;;;;;5.50;4.80;;;25.60;90.90;;;;;;5014769;28;20309;-28
2022/07/25 02:27:05;;;;;;;5.25;4.53;;;25.60;90.90;;;;;;5026612;28;20229;-23
2022/07/25 02:29:35;;;;;;;5.43;4.70;;;25.60;90.90;;;;;;5028126;28;20208;-23
2022/07/25 02:32:02;;;;;;;5.05;4.60;;;25.60;91.00;;;;;;5024109;28;20259;-23
2022/07/25 02:34:32;;;;;;;7.15;4.72;;;25.50;91.00;;;;;;5008845;28;20210;-23
2022/07/25 02:37:01;;;;;;;5.28;4.40;;;25.50;91.00;;;;;;5008954;28;20919;-23
2022/07/25 02:39:28;;;;;;;6.05;4.43;;;25.50;91.10;;;;;;5013203;28;20297;-23
2022/07/25 02:42:01;;;;;;;5.82;4.70;;;25.50;91.00;;;;;;5017163;28;20604;-23
2022/07/25 02:44:31;;;;;;;5.25;4.75;;;25.50;91.10;;;;;;5031862;28;20742;-24
2022/07/25 02:47:00;;;;;;;6.43;4.32;;;25.40;91.10;;;;;;5029146;28;20193;-23
2022/07/25 02:49:27;;;;;;;5.10;4.07;;;25.40;91.00;;;;;;5018064;28;20221;-23
2022/07/25 02:51:57;;;;;;;5.22;4.53;;;25.40;91.10;;;;;;5018870;28;20245;-23
2022/07/25 02:54:24;;;;;;;5.38;4.88;;;25.30;91.00;;;;;;5018383;28;20213;-23
2022/07/25 02:56:54;;;;;;;5.05;4.47;;;25.30;91.00;;;;;;5024273;28;20384;-23
2022/07/25 02:59:26;;;;;;;5.13;4.60;;;25.30;91.00;;;;;;5016183;28;20332;-23
2022/07/25 03:01:58;;;;;;;5.97;4.45;;;25.30;90.90;;;;;;5030761;28;20311;-24
2022/07/25 03:04:29;;;;;;;5.55;4.57;;;25.30;90.90;;;;;;5031212;28;20723;-23
2022/07/25 03:06:57;;;;;;;4.88;4.38;;;25.30;90.90;;;;;;5030350;28;20696;-23
2022/07/25 03:09:27;;;;;;;4.25;3.85;;;25.30;90.90;;;;;;5021819;28;20215;-24
2022/07/25 03:11:54;;;;;;;5.97;4.28;;;25.30;90.90;;;;;;5028087;28;20209;-23
2022/07/25 03:14:24;;;;;;;4.82;4.18;;;25.30;90.80;;;;;;5011556;28;20230;-23
2022/07/25 03:16:52;;;;;;;4.95;4.32;;;25.30;90.90;;;;;;5022326;28;20270;-23
2022/07/25 03:19:19;;;;;;;5.20;4.30;;;25.30;90.90;;;;;;5019950;28;20331;-24
2022/07/25 03:21:47;;;;;;;6.53;4.22;;;25.30;90.90;;;;;;5023191;28;20226;-24
2022/07/25 03:24:17;;;;;;;5.20;4.38;;;25.20;90.80;;;;;;5028949;28;20201;-24
2022/07/25 03:26:47;;;;;;;6.15;4.40;;;25.30;90.90;;;;;;5010801;28;20281;-27
2022/07/25 03:29:14;;;;;;;4.75;4.13;;;25.20;90.80;;;;;;5015771;28;20232;-27
2022/07/25 03:31:41;;;;;;;5.88;4.25;;;25.20;90.80;;;;;;5021130;28;20236;-27
2022/07/25 03:34:09;;;;;;;5.55;4.53;;;25.20;90.80;;;;;;5020129;28;20214;-27
2022/07/25 03:36:36;;;;;;;5.63;4.40;;;25.20;90.80;;;;;;5011597;28;20201;-27
2022/07/25 03:39:03;;;;;;;6.20;4.07;;;25.20;90.80;;;;;;5026289;28;20316;-27
2022/07/25 03:41:31;;;;;;;4.80;4.28;;;25.20;90.90;;;;;;5011221;28;20795;-27
2022/07/25 03:43:59;;;;;;;5.65;4.20;;;25.20;90.90;;;;;;5009025;28;20308;-27
2022/07/25 03:46:26;;;;;;;5.07;4.30;;;25.20;90.90;;;;;;5011607;28;20212;-28
2022/07/25 03:48:54;;;;;;;4.55;4.15;;;25.20;90.90;;;;;;5010532;28;20210;-27
2022/07/25 03:51:21;;;;;;;4.72;4.30;;;25.20;90.90;;;;;;5009183;28;20222;-27
2022/07/25 03:54:00;;;;;;;4.70;4.30;;;25.30;91.00;;;;;;5011247;28;20586;-27
2022/07/25 03:56:59;;;;;;;5.45;4.55;;;25.30;91.00;;;;;;5028147;28;20201;-27
2022/07/25 03:59:29;;;;;;;4.88;4.32;;;25.30;91.20;;;;;;5017867;28;20245;-27
2022/07/25 04:01:56;;;;;;;5.30;4.25;;;25.20;91.10;;;;;;5019163;28;20315;-27
2022/07/25 04:04:24;;;;;;;4.80;4.40;;;25.20;91.10;;;;;;5010514;28;20198;-27
2022/07/25 04:06:53;;;;;;;4.70;3.95;;;25.20;91.10;;;;;;5016090;28;20236;-27
2022/07/25 04:09:22;;;;;;;4.90;4.32;;;25.30;91.10;;;;;;5021801;28;20208;-27
2022/07/25 04:11:52;;;;;;;5.07;4.57;;;25.30;91.10;;;;;;5009961;28;20213;-27
2022/07/25 04:14:19;;;;;;;4.90;4.43;;;25.30;91.10;;;;;;5008805;28;20268;-27
2022/07/25 04:16:49;;;;;;;6.47;4.40;;;25.20;91.10;;;;;;5020960;28;20213;-27
2022/07/25 04:19:18;;;;;;;6.40;4.53;;;25.30;91.10;;;;;;5024038;28;20233;-23
2022/07/25 04:21:48;;;;;;;4.80;4.28;;;25.30;91.10;;;;;;5009976;28;20232;-23
2022/07/25 04:24:18;;;;;;;5.47;4.35;;;25.20;91.10;;;;;;5014239;28;20231;-24
2022/07/25 04:26:51;;;;;;;5.38;4.68;;;25.30;91.20;;;;;;5024766;28;20205;-24
2022/07/25 04:29:20;;;;;;;4.78;4.32;;;25.30;91.20;;;;;;5023800;28;20205;-23
2022/07/25 04:31:48;;;;;;;6.15;4.80;;;25.30;91.20;;;;;;5026193;28;20205;-23
2022/07/25 04:34:15;;;;;;;7.40;4.57;;;25.30;91.20;;;;;;5015672;28;20655;-23
2022/07/25 04:36:44;;;;;;;7.63;4.90;;;25.30;91.20;;;;;;5017569;28;20607;-23
2022/07/25 04:39:12;;;;;;;5.00;4.28;;;25.30;91.20;;;;;;5013239;28;20209;-23
2022/07/25 04:41:41;;;;;;;4.85;4.38;;;25.30;91.20;;;;;;5019146;28;20319;-23
2022/07/25 04:44:08;;;;;;;4.93;4.47;;;25.30;91.30;;;;;;5009784;28;20212;-27
2022/07/25 04:46:39;;;;;;;4.95;4.38;;;25.30;91.30;;;;;;5008560;28;20221;-23
2022/07/25 04:49:06;;;;;;;5.25;4.70;;;25.30;91.30;;;;;;5027934;28;20197;-23
2022/07/25 04:51:33;;;;;;;5.13;4.60;;;25.30;91.30;;;;;;5013499;28;20300;-23
2022/07/25 04:54:03;;;;;;;6.63;4.78;;;25.30;91.30;;;;;;5020075;28;20659;-23
2022/07/25 04:56:35;;;;;;;6.70;4.35;;;25.30;91.40;;;;;;5029028;28;20219;-23
2022/07/25 04:59:05;;;;;;;5.43;4.40;;;25.30;91.40;;;;;;5022781;28;20244;-23
2022/07/25 05:01:36;;;;;;;5.18;4.68;;;25.30;91.50;;;;;;5011032;28;20232;-24
2022/07/25 05:04:06;;;;;;;5.20;4.70;;;25.30;91.50;;;;;;5009118;28;20569;-23
2022/07/25 05:06:36;;;;;;;5.60;4.65;;;25.30;91.50;;;;;;5021804;28;20209;-23
2022/07/25 05:09:05;;;;;;;8.13;4.72;;;25.30;91.50;;;;;;5014931;28;20209;-24
2022/07/25 05:11:35;;;;;;;7.25;4.88;;;25.30;91.50;;;;;;5027730;28;20224;-24
2022/07/25 05:14:04;;;;;;;6.97;5.05;;;25.30;91.60;;;;;;5021919;28;20205;-23
2022/07/25 05:16:37;;;;;;;5.10;4.43;;;25.30;91.60;;;;;;5019297;28;20707;-23
2022/07/25 05:19:08;;;;;;;6.35;4.65;;;25.30;91.60;;;;;;5026565;28;20267;-24
2022/07/25 05:21:38;;;;;;;5.55;3.47;;;25.30;91.60;;;;;;5016384;28;20243;-23
2022/07/25 05:24:05;;;;;;;4.60;3.45;;;25.30;91.50;;;;;;5024984;28;20232;-23
2022/07/25 05:26:35;;;;;;;3.17;2.40;;;25.30;91.50;;;;;;5021441;28;20427;-23
2022/07/25 05:29:02;;;;;;;3.28;2.40;;;25.30;91.30;;;;;;5016908;28;20598;-23
2022/07/25 05:31:35;;;;;;;2.63;2.17;;;25.30;91.10;;;;;;5023669;28;20213;-23
2022/07/25 05:34:09;;;;;;;3.95;1.98;;;25.30;90.90;;;;;;5022639;28;20350;-23
2022/07/25 05:36:39;;;;;;;2.28;1.88;;;25.20;90.70;;;;;;5021846;28;20213;-24
2022/07/25 05:39:13;;;;;;;2.25;1.60;;;25.20;90.80;;;;;;5027678;28;20717;-23
2022/07/25 05:41:42;;;;;;;3.00;2.03;;;25.10;90.60;;;;;;5025700;28;20572;-23
2022/07/25 05:44:09;;;;;;;3.90;1.90;;;25.10;90.60;;;;;;5011903;28;20570;-23
2022/07/25 05:46:37;;;;;;;2.67;2.10;;;25.10;90.60;;;;;;5004661;28;20378;-23
2022/07/25 05:49:06;;;;;;;3.83;2.13;;;25.10;90.50;;;;;;5007011;28;20664;-23
2022/07/25 05:51:36;;;;;;;3.58;1.92;;;25.00;90.50;;;;;;5019274;28;20303;-25
2022/07/25 05:54:03;;;;;;;3.55;1.80;;;25.00;90.60;;;;;;5019930;28;20857;-24
2022/07/25 05:56:33;;;;;;;3.22;1.60;;;25.00;90.60;;;;;;5020884;28;20578;-24
2022/07/25 05:59:02;;;;;;;5.28;1.95;;;25.00;90.60;;;;;;5016431;28;20723;-25
2022/07/25 06:01:29;;;;;;;4.72;1.80;;;25.10;90.70;;;;;;5016213;28;20323;-23
2022/07/25 06:03:57;;;;;;;4.75;1.90;;;25.10;90.90;;;;;;5009989;28;20202;-23
2022/07/25 06:06:24;;;;;;;4.10;2.15;;;25.10;90.90;;;;;;5010959;28;20296;-23
2022/07/25 06:08:54;;;;;;;4.20;1.75;;;25.10;90.90;;;;;;5022111;28;20263;-24
2022/07/25 06:11:22;;;;;;;4.38;1.67;;;25.20;91.00;;;;;;5025852;28;20205;-23
2022/07/25 06:13:56;;;;;;;2.85;1.63;;;25.20;91.00;;;;;;5012943;28;20707;-23
2022/07/25 06:16:26;;;;;;;4.00;1.58;;;25.30;91.00;;;;;;5034347;28;20598;-23
2022/07/25 06:18:53;;;;;;;5.05;1.83;;;25.30;91.00;;;;;;5016367;28;20209;-23
2022/07/25 06:21:22;;;;;;;4.25;1.60;;;25.30;91.10;;;;;;5030318;28;20292;-23
2022/07/25 06:24:09;;;;;;;4.00;1.65;;;25.30;91.10;;;;;;5015708;28;20202;-23
2022/07/25 06:26:39;;;;;;;6.32;1.77;;;25.30;91.10;;;;;;5011912;28;20237;-24
2022/07/25 06:29:09;;;;;;;6.35;1.95;;;25.30;91.20;;;;;;5018623;28;20204;-24
2022/07/25 06:31:36;;;;;;;3.95;1.80;;;25.30;91.40;;;;;;5024034;28;20493;-23
2022/07/25 06:34:03;;;;;;;4.72;1.45;;;25.30;91.30;;;;;;5004839;28;20722;-23
2022/07/25 06:36:31;;;;;;;3.63;1.70;;;25.40;91.40;;;;;;5018422;28;20663;-24
2022/07/25 06:38:59;;;;;;;5.45;2.08;;;25.40;91.50;;;;;;5026683;28;20200;-24
2022/07/25 06:41:27;;;;;;;4.85;1.70;;;25.40;91.40;;;;;;5023662;28;20953;-27
2022/07/25 06:43:58;;;;;;;3.28;1.40;;;25.50;91.50;;;;;;5019982;28;20212;-27
2022/07/25 06:46:29;;;;;;;2.80;1.55;;;25.50;91.60;;;;;;5014810;28;20240;-27
2022/07/25 06:48:57;;;;;;;3.67;1.67;;;25.50;91.60;;;;;;5018114;28;20684;-27
2022/07/25 06:51:25;;;;;;;4.72;2.15;;;25.50;91.60;;;;;;5010452;28;20213;-27
2022/07/25 06:53:52;;;;;;;5.13;1.80;;;25.50;91.60;;;;;;5012501;28;20300;-27
2022/07/25 06:56:19;;;;;;;6.88;2.13;;;25.50;91.50;;;;;;5010668;28;20206;-27
2022/07/25 06:58:47;;;;;;;6.03;1.70;;;25.50;91.50;;;;;;5015393;28;20638;-27
2022/07/25 07:01:14;;;;;;;4.10;1.92;;;25.50;91.80;;;;;;5030715;28;20229;-27
2022/07/25 07:03:43;;;;;;;3.85;1.85;;;25.50;91.50;;;;;;5014698;28;20201;-27
2022/07/25 07:06:11;;;;;;;6.28;1.80;;;25.50;91.60;;;;;;5011903;28;20739;-27
2022/07/25 07:08:38;;;;;;;4.28;1.95;;;25.50;91.70;;;;;;5025222;28;20666;-27
2022/07/25 07:11:06;;;;;;;4.00;1.70;;;25.60;91.70;;;;;;5025212;28;20201;-27
2022/07/25 07:13:38;;;;;;;4.07;1.73;;;25.60;91.70;;;;;;5028506;28;20232;-27
2022/07/25 07:16:05;;;;;;;7.65;1.60;;;25.60;91.80;;;;;;5031370;28;20244;-26
2022/07/25 07:18:35;;;;;;;2.33;1.48;;;25.60;91.80;;;;;;5013570;28;20212;-27
2022/07/25 07:21:04;;;;;;;3.47;1.70;;;25.60;91.80;;;;;;5009913;28;20695;-27
2022/07/25 07:23:34;;;;;;;3.10;1.83;;;25.60;92.00;;;;;;5017277;28;20307;-27
2022/07/25 07:26:02;;;;;;;5.18;1.40;;;25.60;91.90;;;;;;5023818;28;20228;-27
2022/07/25 07:28:29;;;;;;;2.88;1.35;;;25.60;91.90;;;;;;5020052;28;20198;-27
2022/07/25 07:30:59;;;;;;;3.63;1.27;;;25.60;92.10;;;;;;5017338;28;20214;-27
2022/07/25 07:33:44;;;;;;;4.10;1.70;;;25.60;92.10;;;;;;5012305;28;20288;-27
2022/07/25 07:36:11;;;;;;;4.60;1.40;;;25.70;92.20;;;;;;5020988;28;20205;-27
2022/07/25 07:38:43;;;;;;;3.15;1.10;;;25.70;92.10;;;;;;5019538;28;20288;-27
2022/07/25 07:41:10;;;;;;;1.63;1.20;;;25.80;92.10;;;;;;5011006;28;20401;-26
2022/07/25 07:43:40;;;;;;;3.63;1.15;;;25.80;92.20;;;;;;5021847;28;20215;-26
2022/07/25 07:46:10;;;;;;;4.72;1.77;;;25.80;92.20;;;;;;5011730;28;20233;-27
2022/07/25 07:48:45;;;;;;;2.92;1.15;;;25.90;92.30;;;;;;5041609;28;20292;-27
2022/07/25 07:51:17;;;;;;;2.90;1.15;;;25.90;92.30;;;;;;5021601;28;20248;-27
2022/07/25 07:56:35;;;;;;;4.65;1.15;;;26.00;92.50;;;;;;5012029;28;20264;-27
2022/07/25 07:59:05;;;;;;;2.83;1.15;;;26.00;92.60;;;;;;5011822;28;20298;-28
2022/07/25 08:01:33;;;;;;;3.03;1.20;;;26.00;92.50;;;;;;5009467;28;20233;-27
2022/07/25 08:04:03;;;;;;;2.10;0.93;;;26.00;92.40;;;;;;5024577;28;20209;-27
2022/07/25 08:06:31;;;;;;;2.10;1.00;;;26.00;92.50;;;;;;5006480;28;20211;-24
2022/07/25 08:08:58;;;;;;;2.28;1.00;;;26.00;92.50;;;;;;5013129;28;20240;-24
2022/07/25 08:11:30;;;;;;;4.18;1.13;;;26.00;92.40;;;;;;5038476;28;20208;-27
2022/07/25 08:13:57;;;;;;;2.88;0.90;;;26.10;92.60;;;;;;5026605;28;20205;-27
2022/07/25 08:16:27;;;;;;;2.97;1.20;;;26.10;92.60;;;;;;5023888;28;20295;-28
2022/07/25 08:18:59;;;;;;;1.92;0.70;;;26.00;92.60;;;;;;5016033;28;20218;-27
2022/07/25 08:21:28;;;;;;;2.72;1.02;;;26.00;92.60;;;;;;5005313;28;20280;-27
2022/07/25 08:23:58;;;;;;;1.98;1.30;;;26.00;92.70;;;;;;5015398;28;20206;-27
2022/07/25 08:26:26;;;;;;;2.13;1.10;;;26.00;92.70;;;;;;5020775;28;20224;-27
2022/07/25 08:28:54;;;;;;;2.72;1.20;;;25.90;92.60;;;;;;5011292;28;20225;-27
2022/07/25 08:31:41;;;;;;;2.25;1.33;;;25.90;92.60;;;;;;5010576;28;20546;-27
2022/07/25 08:34:08;;;;;;;5.43;1.30;;;25.80;92.70;;;;;;5022596;28;20210;-27
2022/07/25 08:36:39;;;;;;;1.52;1.00;;;25.70;92.60;;;;;;5013159;28;20217;-27
2022/07/25 08:39:06;;;;;;;3.03;1.40;;;25.80;92.60;;;;;;5029346;28;20228;-28
2022/07/25 08:41:34;;;;;;;4.80;1.13;;;25.80;92.70;;;;;;5017825;28;20350;-27
2022/07/25 08:44:01;;;;;;;2.50;1.20;;;25.80;92.70;;;;;;5024653;28;20205;-27
2022/07/25 08:46:30;;;;;;;3.95;1.33;;;25.80;92.60;;;;;;5009436;28;20669;-27
2022/07/25 08:48:58;;;;;;;4.07;1.33;;;25.80;92.60;;;;;;5009961;28;20211;-28
2022/07/25 08:51:31;;;;;;;1.77;1.10;;;25.80;92.60;;;;;;5016550;28;20201;-27
2022/07/25 08:53:59;;;;;;;2.63;1.30;;;25.80;92.60;;;;;;5008426;28;20212;-24
2022/07/25 08:56:28;;;;;;;1.77;1.20;;;25.80;92.60;;;;;;5010381;28;20300;-24
2022/07/25 08:58:57;;;;;;;2.40;1.35;;;25.80;92.60;;;;;;5012517;28;20241;-24
2022/07/25 09:01:31;;;;;;;3.58;1.17;;;25.80;92.60;;;;;;5009131;28;20201;-24
2022/07/25 09:04:02;;;;;;;2.42;1.30;;;25.90;92.60;;;;;;5015130;28;20608;-24
2022/07/25 09:06:35;;;;;;;1.38;1.25;;;25.80;92.60;;;;;;5007516;28;20201;-24
2022/07/25 09:09:07;;;;;;;1.95;1.10;;;25.80;92.70;;;;;;5024067;28;20445;-24
2022/07/25 09:11:36;;;;;;;3.47;1.13;;;25.90;92.70;;;;;;5014080;28;20209;-25
2022/07/25 09:14:09;;;;;;;3.13;1.35;;;25.90;92.60;;;;;;5014285;28;20198;-24
2022/07/25 09:16:42;;;;;;;4.38;1.40;;;25.90;92.80;;;;;;5009030;28;20217;-24
2022/07/25 09:19:16;;;;;;;2.55;1.27;;;25.90;92.70;;;;;;5017166;28;20271;-24
2022/07/25 09:21:45;;;;;;;2.60;1.52;;;25.90;92.70;;;;;;5023331;28;20221;-24
2022/07/25 09:24:18;;;;;;;2.15;1.17;;;26.00;92.80;;;;;;5020172;28;20240;-24
2022/07/25 09:26:56;;;;;;;2.25;1.20;;;26.00;92.80;;;;;;5012550;28;20221;-24
2022/07/25 09:29:31;;;;;;;2.35;1.27;;;26.10;92.80;;;;;;5018705;28;20288;-24
2022/07/25 09:32:00;;;;;;;2.30;1.20;;;26.10;92.80;;;;;;5009134;28;20227;-24
2022/07/25 09:34:39;;;;;;;3.72;1.55;;;26.10;92.80;;;;;;5021052;28;20213;-27
2022/07/25 09:37:11;;;;;;;2.67;1.33;;;26.10;92.80;;;;;;5023004;28;20239;-24
2022/07/25 09:39:47;;;;;;;1.95;1.30;;;26.10;92.80;;;;;;5010075;28;20872;-24
2022/07/25 09:42:22;;;;;;;4.88;1.33;;;26.20;92.90;;;;;;5013596;28;20220;-24
2022/07/25 09:45:13;;;;;;;3.80;1.27;;;26.30;93.00;;;;;;5011056;28;20219;-24
2022/07/25 09:47:51;;;;;;;2.88;1.52;;;26.30;93.10;;;;;;5008568;28;20603;-24
2022/07/25 09:50:27;;;;;;;2.47;1.40;;;26.30;93.00;;;;;;5026630;28;20282;-24
2022/07/25 09:52:56;;;;;;;2.42;1.27;;;26.30;93.10;;;;;;5026287;28;20237;-24
2022/07/25 09:55:24;;;;;;;2.50;1.30;;;26.40;93.10;;;;;;5013708;28;20209;-24
2022/07/25 09:57:54;;;;;;;2.75;1.20;;;26.50;93.00;;;;;;5010088;28;20221;-24
2022/07/25 10:00:26;;;;;;;2.55;1.25;;;26.50;93.10;;;;;;5013118;28;20210;-24
2022/07/25 10:03:14;;;;;;;2.33;1.40;;;26.60;93.10;;;;;;5018852;28;20208;-24
2022/07/25 10:06:01;;;;;;;2.05;1.13;;;26.70;93.10;;;;;;5011240;28;20692;-24
2022/07/25 10:08:38;;;;;;;1.83;1.00;;;26.80;93.20;;;;;;5029270;28;20213;-24
2022/07/25 10:11:18;;;;;;;2.08;0.90;;;26.80;93.20;;;;;;5015238;28;20685;-24
2022/07/25 10:13:45;;;;;;;2.03;1.05;;;26.90;93.20;;;;;;5019416;28;20208;-24
2022/07/25 10:16:20;;;;;;;1.52;1.17;;;26.90;93.10;;;;;;5017718;28;20738;-28
2022/07/25 10:18:55;;;;;;;2.90;1.10;;;27.00;93.20;;;;;;5019832;28;20232;-27
2022/07/25 10:21:25;;;;;;;1.95;1.10;;;27.10;93.20;;;;;;5015006;28;20296;-28
2022/07/25 10:24:04;;;;;;;2.65;1.13;;;27.20;93.20;;;;;;5016241;28;20224;-27
2022/07/25 10:26:38;;;;;;;3.53;1.48;;;27.20;93.20;;;;;;5021184;28;20229;-27
2022/07/25 10:29:10;;;;;;;1.45;1.30;;;27.30;93.20;;;;;;5008553;28;20245;-27
2022/07/25 10:31:45;;;;;;;2.97;1.27;;;27.30;93.20;;;;;;5015399;28;20687;-27
2022/07/25 10:34:30;;;;;;;2.92;1.40;;;27.40;93.30;;;;;;5011412;28;20220;-27
2022/07/25 10:37:12;;;;;;;3.30;1.38;;;27.40;93.60;;;;;;5015980;28;20585;-27
2022/07/25 10:39:44;;;;;;;1.90;1.20;;;27.50;93.20;;;;;;5009339;28;20268;-27
2022/07/25 10:42:17;;;;;;;4.88;1.50;;;27.60;93.20;;;;;;5010820;28;20216;-27
2022/07/25 10:44:49;;;;;;;2.10;1.45;;;27.60;93.10;;;;;;5008356;28;20265;-27
2022/07/25 10:47:19;;;;;;;2.85;1.40;;;27.60;93.00;;;;;;5017116;28;20816;-27
2022/07/25 10:49:48;;;;;;;4.03;1.50;;;27.70;93.00;;;;;;5022643;28;20209;-27
2022/07/25 10:52:44;;;;;;;2.55;1.40;;;27.70;93.10;;;;;;5006839;28;20210;-27
2022/07/25 10:55:22;;;;;;;2.40;1.58;;;27.70;93.00;;;;;;5016211;28;20241;-25
2022/07/25 10:58:10;;;;;;;1.85;1.42;;;27.70;92.80;;;;;;5012429;28;20684;-24
2022/07/25 11:00:47;;;;;;;2.20;1.48;;;27.80;92.90;;;;;;5017598;28;20205;-23
2022/07/25 11:03:16;;;;;;;3.33;1.50;;;27.80;92.80;;;;;;5022864;28;20225;-24
2022/07/25 11:05:48;;;;;;;4.22;1.50;;;27.80;92.70;;;;;;5026339;28;20198;-23
2022/07/25 11:08:18;;;;;;;2.97;1.40;;;27.80;92.70;;;;;;5013446;28;20212;-23
2022/07/25 11:10:52;;;;;;;2.55;1.25;;;27.80;92.70;;;;;;5026537;28;20224;-24
2022/07/25 11:13:24;;;;;;;4.35;1.67;;;27.90;92.70;;;;;;5014795;28;20217;-23
2022/07/25 11:15:55;;;;;;;4.25;1.83;;;27.90;92.70;;;;;;5012834;28;20212;-24
2022/07/25 11:18:37;;;;;;;3.90;2.00;;;27.90;92.70;;;;;;5010750;28;20216;-24
2022/07/25 11:21:08;;;;;;;2.90;1.83;;;28.00;92.60;;;;;;5016213;28;20295;-24
2022/07/25 11:23:39;;;;;;;6.35;1.90;;;28.00;92.50;;;;;;5024438;28;20244;-24
2022/07/25 11:26:10;;;;;;;3.17;1.63;;;28.00;92.30;;;;;;5014157;28;20197;-23
2022/07/25 11:28:43;;;;;;;2.90;1.90;;;27.90;92.40;;;;;;5029478;28;20751;-23
2022/07/25 11:31:13;;;;;;;5.20;1.75;;;27.90;92.30;;;;;;5002386;28;20216;-23
2022/07/25 11:33:43;;;;;;;3.90;1.92;;;27.90;92.10;;;;;;5026844;28;20204;-23
2022/07/25 11:36:13;;;;;;;3.08;1.80;;;27.90;92.20;;;;;;5023146;28;20673;-23
2022/07/25 11:38:41;;;;;;;3.13;1.55;;;27.90;92.20;;;;;;5027745;28;20229;-23
2022/07/25 11:41:09;;;;;;;3.45;1.77;;;27.90;92.30;;;;;;5023036;28;20676;-23
2022/07/25 11:43:36;;;;;;;4.25;1.75;;;27.90;92.00;;;;;;5012376;28;20656;-25
2022/07/25 11:46:06;;;;;;;3.15;1.75;;;27.90;92.10;;;;;;5017312;28;20229;-25
2022/07/25 11:48:42;;;;;;;4.13;2.10;;;27.80;92.00;;;;;;5009701;28;20213;-25
2022/07/25 11:51:20;;;;;;;6.00;1.80;;;27.80;92.00;;;;;;5009608;28;20200;-25
2022/07/25 11:53:49;;;;;;;8.27;1.90;;;27.70;92.00;;;;;;5022546;28;20203;-25
2022/07/25 11:56:22;;;;;;;3.30;1.58;;;27.70;91.90;;;;;;5017853;28;20696;-25
2022/07/25 11:59:12;;;;;;;6.78;1.65;;;27.60;91.70;;;;;;5013861;28;20264;-25
2022/07/25 12:01:42;;;;;;;3.92;1.48;;;27.50;91.60;;;;;;5015695;28;20561;-25
2022/07/25 12:04:18;;;;;;;3.15;1.48;;;27.40;91.60;;;;;;5024260;28;20221;-25
2022/07/25 12:06:49;;;;;;;5.43;1.50;;;27.30;91.50;;;;;;5019353;28;20216;-25
2022/07/25 12:09:20;;;;;;;2.65;1.50;;;27.20;91.40;;;;;;5025214;28;20201;-25
2022/07/25 12:11:48;;;;;;;4.25;1.30;;;27.10;91.30;;;;;;5017763;28;20574;-25
2022/07/25 12:14:21;;;;;;;4.22;1.20;;;27.10;91.50;;;;;;5012413;28;20214;-25
2022/07/25 12:16:53;;;;;;;3.55;1.40;;;27.00;91.60;;;;;;5014747;28;20267;-25
2022/07/25 12:19:21;;;;;;;3.13;1.33;;;26.90;91.60;;;;;;5010088;28;20292;-25
2022/07/25 12:21:48;;;;;;;3.60;1.33;;;26.90;91.60;;;;;;5039972;28;20224;-25
2022/07/25 12:24:15;;;;;;;3.17;1.42;;;26.80;91.70;;;;;;5026692;28;20715;-25
2022/07/25 12:26:45;;;;;;;3.92;1.42;;;26.80;91.80;;;;;;5029306;28;20742;-25
2022/07/25 12:29:12;;;;;;;3.30;1.58;;;26.80;91.90;;;;;;5028757;28;20749;-25
2022/07/25 12:31:39;;;;;;;3.80;1.83;;;26.80;92.00;;;;;;5023693;28;20304;-25
2022/07/25 12:34:09;;;;;;;4.75;1.60;;;26.90;92.10;;;;;;5009903;28;20707;-25
2022/07/25 12:36:43;;;;;;;4.30;1.80;;;26.90;92.10;;;;;;5013092;28;20291;-25
2022/07/25 12:39:14;;;;;;;4.97;1.75;;;27.00;92.00;;;;;;5027719;28;20298;-25
2022/07/25 12:41:44;;;;;;;5.65;2.13;;;27.00;92.00;;;;;;5039992;28;20249;-25
2022/07/25 12:44:14;;;;;;;3.72;1.90;;;27.00;92.00;;;;;;5009687;28;20641;-25
2022/07/25 12:46:45;;;;;;;3.40;1.55;;;27.00;92.10;;;;;;5017765;28;20216;-25
2022/07/25 12:49:15;;;;;;;3.60;1.58;;;27.10;92.10;;;;;;5020584;28;20204;-25
2022/07/25 12:51:45;;;;;;;2.70;1.58;;;27.10;92.10;;;;;;5020899;28;20300;-25
2022/07/25 12:54:14;;;;;;;6.13;1.65;;;27.20;92.20;;;;;;5027951;28;20205;-25
2022/07/25 12:56:48;;;;;;;4.43;1.88;;;27.30;92.10;;;;;;5038750;28;20250;-28
2022/07/25 12:59:20;;;;;;;3.88;1.63;;;27.30;92.10;;;;;;5007916;28;20336;-28
2022/07/25 13:01:49;;;;;;;7.13;1.95;;;27.30;92.00;;;;;;5006653;28;20723;-28
2022/07/25 13:04:17;;;;;;;2.97;1.60;;;27.30;92.00;;;;;;5012547;28;20221;-25
2022/07/25 13:06:47;;;;;;;7.35;2.17;;;27.30;92.00;;;;;;5017988;28;20637;-25